Time;durP1;ratioP1;P1;durP2;ratioP2;P2;SDS_P1;SDS_P2;PMS_P1;PMS_P2;Temp;Humidity;BMP_temperature;BMP_pressure;BME280_temperature;BME280_humidity;BME280_pressure;Samples;Min_cycle;Max_cycle;Signal;HPM_P1;HPM_P2
2023/01/04 00:00:33;;;;;;;25.00;3.42;;;;;;;12.56;100.00;101712.06;5116171;28;20036;-57
2023/01/04 00:02:59;;;;;;;29.65;4.45;;;;;;;12.48;100.00;101699.56;5113793;28;20039;-60
2023/01/04 00:05:24;;;;;;;11.10;3.80;;;;;;;12.44;100.00;101693.75;5118647;28;20145;-59
2023/01/04 00:07:49;;;;;;;18.73;3.93;;;;;;;12.39;100.00;101706.06;5108289;28;20034;-59
2023/01/04 00:10:15;;;;;;;12.20;3.43;;;;;;;12.46;100.00;101694.41;5113279;28;20036;-61
2023/01/04 00:12:41;;;;;;;18.38;3.78;;;;;;;12.31;100.00;101682.84;5108379;28;20032;-60
2023/01/04 00:15:07;;;;;;;20.20;4.30;;;;;;;12.25;100.00;101675.56;5118958;28;20059;-61
2023/01/04 00:17:33;;;;;;;16.85;4.07;;;;;;;12.51;100.00;101680.41;5107069;28;20028;-61
2023/01/04 00:19:58;;;;;;;19.38;3.85;;;;;;;12.42;100.00;101668.16;5111241;28;20036;-60
2023/01/04 00:22:24;;;;;;;19.63;4.77;;;;;;;12.31;100.00;101661.41;5113690;28;20056;-60
2023/01/04 00:24:49;;;;;;;21.08;4.28;;;;;;;12.18;100.00;101633.38;5114469;28;20035;-60
2023/01/04 00:27:16;;;;;;;19.17;3.97;;;;;;;12.42;100.00;101631.41;5114967;28;20103;-61
2023/01/04 00:29:41;;;;;;;11.50;3.58;;;;;;;12.17;100.00;101626.34;5092345;28;20032;-60
2023/01/04 00:32:07;;;;;;;7.25;3.60;;;;;;;12.60;100.00;101622.13;5117056;28;20210;-61
2023/01/04 00:34:32;;;;;;;9.55;3.80;;;;;;;12.37;100.00;101627.66;5114143;28;20062;-61
2023/01/04 00:36:59;;;;;;;16.70;4.43;;;;;;;12.54;100.00;101634.44;5111934;28;20067;-61
2023/01/04 00:39:24;;;;;;;;;;;;;;;12.19;100.00;101626.19;5116099;28;20043;-62
2023/01/04 00:41:52;;;;;;;25.97;3.80;;;;;;;12.21;100.00;101642.91;5110846;28;19905;-61
2023/01/04 00:44:21;;;;;;;2.10;1.90;;;;;;;11.64;100.00;101628.28;5113012;28;20039;-61
2023/01/04 00:46:47;;;;;;;0.20;0.20;;;;;;;20.79;100.00;101672.91;5115689;28;20269;-58
2023/01/04 00:49:13;;;;;;;0.10;0.10;;;;;;;18.05;100.00;101665.31;5114043;28;20268;-61
2023/01/04 00:51:40;;;;;;;0.10;0.10;;;;;;;18.31;100.00;101651.72;5121895;28;20032;-61
2023/01/04 00:54:10;;;;;;;0.47;0.47;;;;;;;20.40;100.00;101613.78;5107164;28;20032;-60
2023/01/04 00:56:35;;;;;;;1.57;1.37;;;;;;;17.16;100.00;101614.16;5114052;28;20264;-62
2023/01/04 00:59:02;;;;;;;0.47;0.47;;;;;;;17.34;100.00;101619.63;5090377;28;20288;-60
2023/01/04 01:01:30;;;;;;;1.67;0.30;;;;;;;16.68;100.00;101607.41;5114189;28;20318;-60
2023/01/04 01:03:59;;;;;;;19.23;3.80;;;;;;;16.97;100.00;101645.66;5109574;28;20263;-60
2023/01/04 01:06:26;;;;;;;9.37;3.00;;;;;;;16.52;100.00;101611.44;5110461;28;20303;-60
2023/01/04 01:08:52;;;;;;;21.83;4.10;;;;;;;16.64;100.00;101574.63;5113221;28;20252;-60
2023/01/04 01:11:18;;;;;;;10.13;3.20;;;;;;;17.28;100.00;101592.66;5109194;28;20059;-59
2023/01/04 01:13:45;;;;;;;8.50;2.50;;;;;;;16.62;100.00;101579.41;5109145;28;20103;-59
2023/01/04 01:16:14;;;;;;;13.35;3.40;;;;;;;16.56;100.00;101601.88;5113111;28;20280;-60
2023/01/04 01:18:41;;;;;;;9.73;3.87;;;;;;;16.11;100.00;101560.38;5112286;28;20087;-60
2023/01/04 01:21:10;;;;;;;12.80;3.27;;;;;;;16.01;100.00;101562.72;5113183;28;20326;-60
2023/01/04 01:23:36;;;;;;;0.20;0.20;;;;;;;15.82;100.00;101573.31;5114337;28;20282;-58
2023/01/04 01:26:05;;;;;;;0.10;0.10;;;;;;;15.90;100.00;101565.00;5108384;28;20272;-59
2023/01/04 01:28:33;;;;;;;0.43;0.43;;;;;;;15.75;100.00;101548.25;5112737;28;20028;-60
2023/01/04 01:31:06;;;;;;;0.10;0.10;;;;;;;15.69;100.00;101531.06;5115767;28;20269;-61
2023/01/04 01:33:31;;;;;;;7.60;3.00;;;;;;;16.03;100.00;101547.97;5109774;28;20284;-60
2023/01/04 01:36:01;;;;;;;8.17;2.80;;;;;;;15.69;100.00;101546.41;5112657;28;20290;-61
2023/01/04 01:38:26;;;;;;;7.87;2.77;;;;;;;15.80;100.00;101547.59;5114544;28;20025;-58
2023/01/04 01:40:51;;;;;;;12.57;3.13;;;;;;;15.57;100.00;101565.94;5111107;28;20276;-60
2023/01/04 01:43:20;;;;;;;8.27;3.80;;;;;;;16.00;100.00;101531.38;5109599;28;20277;-58
2023/01/04 01:45:51;;;;;;;9.07;4.23;;;;;;;16.03;100.00;101556.06;5110322;28;20035;-58
2023/01/04 01:48:26;;;;;;;7.57;3.17;;;;;;;16.07;100.00;101515.97;5114972;28;20261;-59
2023/01/04 01:51:01;;;;;;;7.97;3.10;;;;;;;15.80;100.00;101524.16;5109677;28;20271;-60
2023/01/04 01:53:31;;;;;;;10.87;4.90;;;;;;;16.01;100.00;101533.03;5111697;28;20265;-59
2023/01/04 01:55:57;;;;;;;10.70;4.40;;;;;;;15.83;100.00;101526.44;5108987;28;20276;-60
2023/01/04 01:58:30;;;;;;;12.45;3.55;;;;;;;15.93;100.00;101549.47;5114359;28;20308;-59
2023/01/04 02:00:57;;;;;;;16.27;4.33;;;;;;;16.40;100.00;101536.56;5113681;28;20043;-60
2023/01/04 02:03:37;;;;;;;16.73;5.55;;;;;;;15.19;100.00;101526.19;5117532;28;20268;-56
2023/01/04 02:06:06;;;;;;;8.90;5.20;;;;;;;15.42;100.00;101516.81;5115087;28;20029;-58
2023/01/04 02:08:32;;;;;;;11.77;5.37;;;;;;;15.74;100.00;101536.63;5121259;28;20261;-57
2023/01/04 02:10:58;;;;;;;9.82;5.00;;;;;;;15.81;100.00;101516.91;5115107;28;20356;-56
2023/01/04 02:14:25;;;;;;;12.20;6.63;;;;;;;15.85;100.00;101540.53;5116523;28;20032;-59
2023/01/04 02:16:24;;;;;;;14.07;7.27;;;;;;;16.27;100.00;101521.28;5115796;28;20108;-59
2023/01/04 02:19:01;;;;;;;15.07;7.13;;;;;;;16.11;100.00;101509.09;5117363;28;20280;-58
2023/01/04 02:21:53;;;;;;;19.60;7.82;;;;;;;15.91;100.00;101498.44;5111428;28;20070;-57
2023/01/04 02:24:53;;;;;;;12.53;7.53;;;;;;;19.51;100.00;101500.97;5084486;28;20044;-58
2023/01/04 02:27:57;;;;;;;15.73;8.60;;;;;;;17.47;100.00;101501.56;5108743;28;20255;-56
2023/01/04 02:30:45;;;;;;;14.03;7.27;;;;;;;16.57;100.00;101495.53;5115533;28;20264;-55
2023/01/04 02:33:20;;;;;;;12.60;7.07;;;;;;;16.06;100.00;101495.44;5112515;28;20279;-55
2023/01/04 02:36:16;;;;;;;12.83;7.03;;;;;;;16.42;100.00;101502.06;5119391;28;20036;-57
2023/01/04 02:39:09;;;;;;;18.87;7.27;;;;;;;16.68;100.00;101502.91;5115090;28;20344;-57
2023/01/04 02:41:55;;;;;;;13.03;6.43;;;;;;;17.06;100.00;101491.16;5113767;28;20257;-57
2023/01/04 02:50:31;;;;;;;11.63;6.47;;;;;;;16.61;100.00;101462.47;5118888;28;20270;-56
2023/01/04 02:53:01;;;;;;;11.27;6.27;;;;;;;17.05;100.00;101451.69;5119290;28;20301;-60
2023/01/04 02:55:43;;;;;;;11.30;5.53;;;;;;;16.96;100.00;101457.59;5117153;28;20256;-55
2023/01/04 02:58:28;;;;;;;12.30;6.77;;;;;;;17.08;100.00;101450.41;5116487;28;20379;-55
2023/01/04 03:07:32;;;;;;;7.85;5.38;;;;;;;16.57;100.00;101450.47;5123485;28;20269;-54
2023/01/04 03:10:38;;;;;;;9.37;6.73;;;;;;;16.47;100.00;101477.94;5119978;28;20032;-55
2023/01/04 03:13:18;;;;;;;9.83;6.60;;;;;;;16.54;100.00;101460.84;5122160;28;20342;-56
2023/01/04 03:15:49;;;;;;;10.47;6.60;;;;;;;16.83;100.00;101431.50;5120474;28;20280;-54
2023/01/04 03:18:20;;;;;;;10.10;5.93;;;;;;;17.56;100.00;101439.91;5116145;28;20310;-53
2023/01/04 03:20:48;;;;;;;10.47;6.53;;;;;;;18.05;100.00;101450.72;5120343;28;20284;-55
2023/01/04 03:49:56;;;;;;;10.17;5.53;;;;;;;17.45;100.00;101406.34;5120553;28;20286;-55
2023/01/04 03:52:26;;;;;;;8.10;5.53;;;;;;;17.99;100.00;101392.06;5120225;28;20335;-55
2023/01/04 03:54:54;;;;;;;10.23;5.83;;;;;;;18.24;100.00;101408.16;5119963;28;20054;-56
2023/01/04 03:57:22;;;;;;;6.33;4.73;;;;;;;18.09;100.00;101388.81;5119116;28;20285;-56
2023/01/04 03:59:54;;;;;;;5.50;4.40;;;;;;;17.76;100.00;101407.16;5119080;28;20268;-55
2023/01/04 04:02:27;;;;;;;5.60;4.07;;;;;;;17.76;100.00;101399.03;5117038;28;20268;-56
2023/01/04 04:10:23;;;;;;;6.73;3.80;;;;;;;18.06;100.00;101387.41;5122182;28;20276;-54
2023/01/04 04:12:51;;;;;;;8.32;3.92;;;;;;;18.54;100.00;101384.75;5122374;28;20279;-53
2023/01/04 04:15:17;;;;;;;10.17;4.47;;;;;;;18.32;100.00;101371.78;5123171;28;20122;-55
2023/01/04 04:17:43;;;;;;;7.13;4.07;;;;;;;18.05;100.00;101377.66;5123317;28;20295;-56
2023/01/04 04:20:11;;;;;;;11.15;4.18;;;;;;;18.33;100.00;101373.44;5102903;28;20036;-54
2023/01/04 04:22:38;;;;;;;9.30;4.10;;;;;;;17.77;100.00;101360.16;5122883;28;20056;-55
2023/01/04 04:25:04;;;;;;;6.20;3.60;;;;;;;17.82;100.00;101384.63;5102742;28;20275;-55
2023/01/04 04:27:29;;;;;;;5.28;3.83;;;;;;;18.07;100.00;101364.69;5118126;28;20058;-55
2023/01/04 04:29:55;;;;;;;5.17;3.87;;;;;;;17.39;100.00;101358.59;5115727;28;20036;-55
2023/01/04 04:32:21;;;;;;;6.60;3.83;;;;;;;17.67;100.00;101384.19;5115637;28;20056;-52
2023/01/04 04:34:46;;;;;;;5.75;3.15;;;;;;;17.54;100.00;101345.50;5119187;28;20040;-53
2023/01/04 04:37:12;;;;;;;5.65;3.78;;;;;;;18.78;100.00;101348.44;5120398;28;20092;-54
2023/01/04 04:39:38;;;;;;;5.90;3.10;;;;;;;18.01;100.00;101352.06;5117787;28;20063;-54
2023/01/04 04:42:03;;;;;;;4.60;3.20;;;;;;;18.03;100.00;101336.47;5121609;28;20039;-54
2023/01/04 04:44:29;;;;;;;5.43;3.93;;;;;;;18.44;100.00;101334.69;5120704;28;20040;-54
2023/01/04 04:46:54;;;;;;;5.65;4.20;;;;;;;18.34;100.00;101348.00;5121319;28;20032;-51
2023/01/04 04:49:20;;;;;;;7.78;3.65;;;;;;;20.48;100.00;101340.91;5123165;28;20032;-57
2023/01/04 04:51:46;;;;;;;9.02;3.97;;;;;;;18.82;100.00;101347.97;5118633;28;20086;-56
2023/01/04 04:54:17;;;;;;;5.22;3.72;;;;;;;18.39;100.00;101328.34;5119557;28;20050;-55
2023/01/04 04:56:43;;;;;;;7.47;5.03;;;;;;;18.33;100.00;101328.22;5118903;28;20057;-51
2023/01/04 04:59:08;;;;;;;10.57;4.40;;;;;;;18.32;100.00;101342.81;5121536;28;20290;-55
2023/01/04 05:01:34;;;;;;;6.40;4.33;;;;;;;19.22;100.00;101330.94;5122975;28;20024;-57
2023/01/04 05:03:59;;;;;;;8.43;4.50;;;;;;;19.06;100.00;101325.19;5120313;28;20032;-56
2023/01/04 05:06:25;;;;;;;7.95;4.30;;;;;;;18.76;100.00;101331.59;5123267;28;20068;-56
2023/01/04 05:08:50;;;;;;;8.27;3.80;;;;;;;17.62;100.00;101326.22;5119165;28;20094;-54
2023/01/04 05:12:58;;;;;;;7.23;3.97;;;;;;;18.13;100.00;101317.75;5122232;28;20271;-52
2023/01/04 05:14:01;;;;;;;7.13;4.30;;;;;;;17.79;100.00;101328.28;5119246;28;20268;-54
2023/01/04 05:16:27;;;;;;;11.70;4.97;;;;;;;17.87;100.00;101311.69;5100696;28;20343;-55
2023/01/04 05:18:52;;;;;;;8.53;4.77;;;;;;;18.14;100.00;101300.44;5118181;28;20043;-55
2023/01/04 05:21:18;;;;;;;10.83;4.50;;;;;;;18.00;100.00;101312.56;5123412;28;20271;-55
2023/01/04 05:23:43;;;;;;;6.80;4.27;;;;;;;17.97;100.00;101304.88;5121336;28;20032;-56
2023/01/04 05:26:09;;;;;;;8.47;4.67;;;;;;;17.92;100.00;101303.69;5122930;28;20027;-55
2023/01/04 05:28:34;;;;;;;9.20;5.03;;;;;;;18.23;100.00;101308.25;5120181;28;20048;-57
2023/01/04 05:31:00;;;;;;;9.00;5.20;;;;;;;18.03;100.00;101321.03;5120165;28;20066;-57
2023/01/04 05:33:28;;;;;;;10.33;6.50;;;;;;;18.06;100.00;101287.28;5120363;28;20286;-55
2023/01/04 05:35:59;;;;;;;10.27;4.83;;;;;;;18.09;100.00;101292.22;5116193;28;20828;-52
2023/01/04 05:38:25;;;;;;;7.33;4.00;;;;;;;18.03;100.00;101310.22;5100836;28;20284;-58
2023/01/04 05:40:52;;;;;;;8.43;4.95;;;;;;;18.25;100.00;101296.09;5122783;28;20303;-56
2023/01/04 05:43:19;;;;;;;10.93;4.68;;;;;;;18.20;100.00;101299.50;5124082;28;20046;-54
2023/01/04 05:45:53;;;;;;;15.43;4.87;;;;;;;18.03;100.00;101283.16;5122577;28;20062;-55
2023/01/04 05:48:19;;;;;;;6.50;4.07;;;;;;;18.01;100.00;101279.00;5120626;28;20256;-61
2023/01/04 05:50:46;;;;;;;9.37;4.97;;;;;;;17.72;100.00;101265.31;5120278;28;20272;-57
2023/01/04 05:53:16;;;;;;;12.23;4.43;;;;;;;17.86;100.00;101277.59;5120718;28;20866;-58
2023/01/04 05:55:43;;;;;;;7.20;4.20;;;;;;;18.46;100.00;101274.88;5100919;28;20265;-58
2023/01/04 05:58:08;;;;;;;9.93;4.30;;;;;;;17.54;100.00;101261.66;5115157;28;20296;-59
2023/01/04 06:00:34;;;;;;;7.28;4.55;;;;;;;17.64;100.00;101258.38;5120184;28;20055;-59
2023/01/04 06:03:00;;;;;;;5.30;3.33;;;;;;;17.74;100.00;101257.78;5123819;28;20057;-58
2023/01/04 06:05:25;;;;;;;10.07;4.23;;;;;;;17.90;100.00;101249.00;5118376;28;20268;-59
2023/01/04 06:07:52;;;;;;;13.27;4.57;;;;;;;17.40;100.00;101265.63;5112770;28;20024;-59
2023/01/04 06:10:18;;;;;;;12.05;5.03;;;;;;;17.68;100.00;101302.00;5116733;28;20047;-57
2023/01/04 06:12:44;;;;;;;8.67;4.30;;;;;;;18.03;100.00;101271.50;5120288;28;20028;-59
2023/01/04 06:15:10;;;;;;;9.43;4.90;;;;;;;17.89;100.00;101260.88;5116841;28;20271;-59
2023/01/04 06:17:38;;;;;;;6.88;4.22;;;;;;;17.89;100.00;101243.84;5119458;28;20032;-58
2023/01/04 06:20:05;;;;;;;7.97;5.03;;;;;;;17.94;100.00;101252.06;5117854;28;20045;-57
2023/01/04 06:22:32;;;;;;;8.83;4.33;;;;;;;18.44;100.00;101260.78;5118196;28;20298;-60
2023/01/04 06:24:58;;;;;;;8.70;4.80;;;;;;;18.09;100.00;101264.31;5118839;28;20290;-56
2023/01/04 06:27:23;;;;;;;13.75;4.75;;;;;;;18.03;100.00;101271.50;5118961;28;20028;-58
2023/01/04 06:29:49;;;;;;;8.50;4.90;;;;;;;18.36;100.00;101282.81;5116964;28;20035;-58
2023/01/04 06:32:15;;;;;;;13.82;6.55;;;;;;;18.23;100.00;101270.34;5112801;28;20272;-58
2023/01/04 06:34:41;;;;;;;8.73;5.30;;;;;;;18.00;100.00;101263.84;5118503;28;20051;-57
2023/01/04 06:37:06;;;;;;;8.93;5.70;;;;;;;18.20;100.00;101277.84;5117093;28;20040;-57
2023/01/04 06:39:32;;;;;;;13.25;6.53;;;;;;;17.98;100.00;101279.47;5117554;28;20465;-59
2023/01/04 06:41:57;;;;;;;14.53;5.83;;;;;;;18.38;100.00;101286.09;5098336;28;20024;-61
2023/01/04 06:44:22;;;;;;;9.40;5.97;;;;;;;18.20;100.00;101277.03;5118884;28;20059;-58
2023/01/04 06:46:48;;;;;;;11.60;6.65;;;;;;;18.11;100.00;101279.28;5116962;28;20028;-58
2023/01/04 06:49:14;;;;;;;11.03;6.07;;;;;;;18.17;100.00;101282.94;5121438;28;20045;-59
2023/01/04 06:51:39;;;;;;;13.53;7.00;;;;;;;18.07;100.00;101275.41;5125792;28;20308;-58
2023/01/04 06:54:05;;;;;;;15.07;6.23;;;;;;;18.33;100.00;101273.25;5122125;28;20036;-58
2023/01/04 06:56:31;;;;;;;14.90;7.15;;;;;;;18.47;100.00;101282.78;5124102;28;20088;-58
2023/01/04 06:58:57;;;;;;;30.35;8.02;;;;;;;18.30;100.00;101277.25;5122393;28;20032;-59
2023/01/04 07:01:23;;;;;;;9.82;6.28;;;;;;;18.37;100.00;101274.44;5123409;28;20059;-59
2023/01/04 07:03:48;;;;;;;11.50;7.17;;;;;;;18.26;100.00;101276.09;5125327;28;20028;-59
2023/01/04 07:06:14;;;;;;;24.88;7.10;;;;;;;18.56;100.00;101260.75;5124118;28;20023;-57
2023/01/04 07:08:39;;;;;;;11.50;6.83;;;;;;;18.91;100.00;101257.09;5123140;28;20031;-59
2023/01/04 07:11:05;;;;;;;16.10;7.07;;;;;;;18.63;100.00;101248.72;5123333;28;20028;-56
2023/01/04 07:13:30;;;;;;;11.80;6.73;;;;;;;18.73;100.00;101245.41;5123165;28;20039;-59
2023/01/04 07:15:55;;;;;;;16.10;7.20;;;;;;;18.66;100.00;101236.56;5120826;28;20028;-57
2023/01/04 07:18:21;;;;;;;13.17;6.17;;;;;;;18.23;100.00;101243.28;5124889;28;20044;-59
2023/01/04 07:20:47;;;;;;;12.27;5.63;;;;;;;18.24;100.00;101261.97;5121657;28;20024;-58
2023/01/04 07:23:13;;;;;;;12.48;5.70;;;;;;;18.64;100.00;101233.28;5122998;28;20046;-57
2023/01/04 07:25:39;;;;;;;11.52;5.88;;;;;;;18.44;100.00;101234.50;5123352;28;20081;-57
2023/01/04 07:28:04;;;;;;;12.13;6.07;;;;;;;18.98;100.00;101232.56;5121203;28;20042;-58
2023/01/04 07:30:30;;;;;;;12.52;4.72;;;;;;;18.75;100.00;101240.56;5118389;28;20030;-58
2023/01/04 07:32:55;;;;;;;13.80;4.90;;;;;;;18.95;100.00;101212.22;5122576;28;20046;-56
2023/01/04 07:35:21;;;;;;;11.68;4.53;;;;;;;18.83;100.00;101224.97;5117356;28;20053;-57
2023/01/04 07:37:47;;;;;;;7.32;3.97;;;;;;;18.77;100.00;101205.91;5119498;28;20032;-57
2023/01/04 07:40:13;;;;;;;7.75;4.30;;;;;;;18.84;100.00;101213.06;5120081;28;20036;-58
2023/01/04 07:42:39;;;;;;;16.73;4.15;;;;;;;19.11;100.00;101198.94;5122613;28;20024;-57
2023/01/04 07:45:05;;;;;;;9.55;4.68;;;;;;;18.89;100.00;101218.59;5114880;28;20032;-56
2023/01/04 07:47:31;;;;;;;11.27;4.50;;;;;;;19.17;100.00;101198.00;5124262;28;20027;-58
2023/01/04 07:49:57;;;;;;;11.80;4.20;;;;;;;19.16;100.00;101207.19;5109095;28;20284;-58
2023/01/04 07:52:23;;;;;;;11.35;4.75;;;;;;;19.21;100.00;101180.16;5102643;28;20036;-57
2023/01/04 07:54:48;;;;;;;11.60;4.40;;;;;;;19.38;100.00;101177.47;5118996;28;20024;-57
2023/01/04 07:57:14;;;;;;;9.35;4.57;;;;;;;19.29;100.00;101190.59;5119500;28;20060;-56
2023/01/04 07:59:40;;;;;;;7.10;3.67;;;;;;;19.06;100.00;101186.97;5121107;28;20039;-59
2023/01/04 08:02:06;;;;;;;8.30;3.95;;;;;;;18.97;100.00;101172.16;5118978;28;20065;-58
2023/01/04 08:04:31;;;;;;;11.77;4.35;;;;;;;18.82;100.00;101190.81;5120210;28;20048;-56
2023/01/04 08:06:56;;;;;;;6.67;4.10;;;;;;;19.28;100.00;101188.97;5124240;28;20059;-59
2023/01/04 08:09:22;;;;;;;0.30;0.30;;;;;;;18.68;100.00;101201.94;5121788;28;20339;-58
2023/01/04 08:11:47;;;;;;;0.10;0.10;;;;;;;18.15;100.00;101201.16;5105739;28;20271;-58
2023/01/04 08:14:13;;;;;;;0.20;0.20;;;;;;;18.70;100.00;101194.41;5123214;28;20036;-58
2023/01/04 08:16:41;;;;;;;0.25;0.25;;;;;;;18.75;100.00;101191.78;5120462;28;20032;-58
2023/01/04 08:19:17;;;;;;;0.20;0.20;;;;;;;18.82;100.00;101199.78;5122439;28;20039;-59
2023/01/04 08:21:44;;;;;;;0.20;0.20;;;;;;;18.43;100.00;101211.19;5122579;28;20276;-56
2023/01/04 08:24:15;;;;;;;0.20;0.20;;;;;;;18.82;100.00;101196.25;5105609;28;20285;-57
2023/01/04 08:26:41;;;;;;;8.93;4.10;;;;;;;18.74;100.00;101195.56;5120729;28;20057;-59
2023/01/04 08:29:07;;;;;;;7.00;5.10;;;;;;;18.68;100.00;101191.09;5118941;28;20289;-59
2023/01/04 08:31:33;;;;;;;15.87;4.40;;;;;;;18.66;100.00;101198.66;5122547;28;20032;-57
2023/01/04 08:34:04;;;;;;;12.77;5.00;;;;;;;18.54;100.00;101212.22;5113975;28;20050;-59
2023/01/04 08:36:35;;;;;;;10.97;5.10;;;;;;;18.56;100.00;101204.69;5123413;28;20370;-58
2023/01/04 08:39:04;;;;;;;11.17;5.27;;;;;;;19.31;100.00;101188.47;5102058;28;20274;-58
2023/01/04 08:41:49;;;;;;;9.47;5.73;;;;;;;18.64;100.00;101214.31;5122837;28;20273;-57
2023/01/04 08:44:17;;;;;;;9.87;6.37;;;;;;;18.94;100.00;101209.72;5120973;28;20294;-58
2023/01/04 08:46:43;;;;;;;10.27;6.00;;;;;;;18.59;100.00;101203.38;5119760;28;20331;-57
2023/01/04 08:49:08;;;;;;;13.43;6.38;;;;;;;18.68;100.00;101201.13;5120793;28;20277;-59
2023/01/04 08:51:35;;;;;;;14.45;6.20;;;;;;;18.49;100.00;101198.59;5102414;28;20096;-58
2023/01/04 08:54:00;;;;;;;13.57;6.17;;;;;;;19.08;100.00;101199.44;5121071;28;20043;-56
2023/01/04 08:56:25;;;;;;;12.90;6.43;;;;;;;19.85;100.00;101195.28;5122409;28;20039;-56
2023/01/04 08:58:51;;;;;;;11.02;6.05;;;;;;;19.55;100.00;101204.56;5120492;28;20067;-57
2023/01/04 09:01:17;;;;;;;18.35;7.32;;;;;;;19.41;100.00;101208.69;5103292;28;20048;-56
2023/01/04 09:03:42;;;;;;;14.45;6.93;;;;;;;20.47;100.00;101198.00;5119691;28;20032;-59
2023/01/04 09:06:10;;;;;;;12.83;6.77;;;;;;;18.76;100.00;101204.28;5115657;28;20027;-58
2023/01/04 09:08:37;;;;;;;13.77;6.73;;;;;;;18.65;100.00;101212.44;5121401;28;20361;-58
2023/01/04 09:11:09;;;;;;;13.23;6.83;;;;;;;19.05;100.00;101195.34;5114332;28;20347;-59
2023/01/04 09:13:35;;;;;;;17.07;6.77;;;;;;;18.70;100.00;101199.84;5116435;28;20271;-58
2023/01/04 09:16:03;;;;;;;13.98;6.68;;;;;;;18.28;100.00;101213.59;5119623;28;20261;-58
2023/01/04 09:18:29;;;;;;;17.37;7.13;;;;;;;18.78;100.00;101217.56;5119742;28;20035;-57
2023/01/04 09:20:56;;;;;;;16.00;6.47;;;;;;;18.00;100.00;101212.44;5119328;28;20285;-58
2023/01/04 09:23:22;;;;;;;14.65;8.05;;;;;;;17.77;100.00;101204.06;5116406;28;20032;-56
2023/01/04 09:25:47;;;;;;;14.82;7.80;;;;;;;18.11;100.00;101229.75;5120683;28;20049;-60
2023/01/04 09:28:13;;;;;;;13.15;7.88;;;;;;;18.66;100.00;101220.31;5118053;28;20031;-57
2023/01/04 09:30:38;;;;;;;15.73;8.80;;;;;;;20.99;100.00;101229.31;5108326;28;20107;-58
2023/01/04 09:33:04;;;;;;;16.27;9.67;;;;;;;19.18;100.00;101262.00;5109992;28;20047;-59
2023/01/04 09:35:29;;;;;;;19.43;8.87;;;;;;;20.12;100.00;101221.72;5111226;28;20032;-56
2023/01/04 09:37:54;;;;;;;18.67;9.80;;;;;;;18.76;100.00;101225.13;5111517;28;20091;-57
2023/01/04 09:40:28;;;;;;;24.93;9.87;;;;;;;19.62;100.00;101237.81;5110172;28;20047;-56
2023/01/04 09:42:54;;;;;;;20.70;10.00;;;;;;;18.92;100.00;101231.66;5105366;28;20352;-56
2023/01/04 09:45:23;;;;;;;17.50;9.90;;;;;;;18.11;100.00;101246.78;5105661;28;20270;-58
2023/01/04 09:47:53;;;;;;;21.20;10.47;;;;;;;19.22;100.00;101221.66;5105529;28;20024;-56
2023/01/04 09:50:24;;;;;;;17.63;9.50;;;;;;;18.67;100.00;101254.47;5103305;28;20758;-59
2023/01/04 09:53:18;;;;;;;17.77;9.07;;;;;;;17.74;100.00;101263.19;5119296;28;20269;-55
2023/01/04 09:55:53;;;;;;;15.30;8.87;;;;;;;18.71;100.00;101231.28;5108004;28;20271;-59
2023/01/04 09:58:28;;;;;;;25.73;10.23;;;;;;;18.78;100.00;101256.31;5111852;28;20285;-61
2023/01/04 10:01:06;;;;;;;18.03;9.97;;;;;;;19.56;100.00;101227.09;5108367;28;20268;-54
2023/01/04 10:03:34;;;;;;;24.53;9.80;;;;;;;20.84;100.00;101237.31;5109608;28;20261;-58
2023/01/04 10:06:02;;;;;;;21.53;9.43;;;;;;;20.26;100.00;101227.63;5109733;28;20261;-54
2023/01/04 10:08:29;;;;;;;;;;;;;;;18.00;100.00;101231.38;5108457;28;20280;-55
2023/01/04 10:11:08;;;;;;;30.70;9.53;;;;;;;18.51;100.00;101222.72;5108859;28;19976;-57
2023/01/04 10:13:58;;;;;;;15.97;8.97;;;;;;;20.96;100.00;101235.25;5110524;28;20283;-59
2023/01/04 10:17:04;;;;;;;18.57;8.80;;;;;;;19.34;100.00;101223.22;5108858;28;20295;-57
2023/01/04 10:20:07;;;;;;;11.73;8.27;;;;;;;19.82;100.00;101252.72;5103136;28;20352;-56
2023/01/04 10:23:15;;;;;;;16.23;8.43;;;;;;;18.23;100.00;101254.09;5112486;28;20271;-59
2023/01/04 10:25:44;;;;;;;20.50;8.63;;;;;;;19.40;100.00;101243.13;5105607;28;20277;-55
2023/01/04 10:28:26;;;;;;;19.60;7.40;;;;;;;19.41;100.00;101254.81;5110820;28;20048;-58
2023/01/04 10:31:10;;;;;;;11.97;6.87;;;;;;;18.61;100.00;101241.88;5117434;28;20299;-58
2023/01/04 10:33:48;;;;;;;16.27;7.20;;;;;;;18.44;100.00;101241.81;5117780;28;20280;-57
2023/01/04 10:36:20;;;;;;;12.33;7.43;;;;;;;19.12;100.00;101228.53;5109692;28;20264;-57
2023/01/04 10:38:54;;;;;;;18.83;7.63;;;;;;;18.24;100.00;101228.69;5113523;28;20302;-54
2023/01/04 10:41:23;;;;;;;23.10;7.70;;;;;;;18.29;100.00;101226.88;5108330;28;20293;-56
2023/01/04 10:44:05;;;;;;;16.67;6.80;;;;;;;19.46;100.00;101244.03;5115121;28;20282;-57
2023/01/04 10:46:42;;;;;;;14.80;7.40;;;;;;;18.41;100.00;101229.56;5117782;28;20266;-58
2023/01/04 10:49:33;;;;;;;;;;;;;;;19.18;100.00;101218.63;5121850;28;20280;-59
2023/01/04 10:52:08;;;;;;;13.27;6.10;;;;;;;19.01;100.00;101205.84;5105801;28;19999;-57
2023/01/04 10:54:50;;;;;;;15.40;6.30;;;;;;;20.19;100.00;101213.41;5120086;28;20296;-59
2023/01/04 10:57:19;;;;;;;9.70;6.43;;;;;;;19.58;100.00;101214.13;5122283;28;20309;-54
2023/01/04 10:59:55;;;;;;;10.27;6.20;;;;;;;20.19;100.00;101211.50;5117335;28;20298;-56
2023/01/04 11:02:34;;;;;;;13.40;6.33;;;;;;;19.66;100.00;101207.47;5123915;28;20267;-58
2023/01/04 11:05:12;;;;;;;13.37;6.60;;;;;;;19.43;100.00;101231.78;5119280;28;20264;-58
2023/01/04 11:07:47;;;;;;;12.80;6.10;;;;;;;19.48;100.00;101234.56;5122739;28;20366;-59
2023/01/04 11:10:20;;;;;;;13.83;6.13;;;;;;;21.55;100.00;101205.56;5120570;28;20261;-56
2023/01/04 11:12:46;;;;;;;12.13;5.57;;;;;;;19.85;100.00;101208.00;5121324;28;20268;-58
2023/01/04 11:15:11;;;;;;;8.90;5.80;;;;;;;21.06;100.00;101226.38;5121721;28;20280;-59
2023/01/04 11:17:37;;;;;;;14.00;5.18;;;;;;;21.16;100.00;101222.94;5122783;28;20039;-58
2023/01/04 11:20:03;;;;;;;10.25;5.15;;;;;;;20.45;100.00;101203.69;5118431;28;20032;-57
2023/01/04 11:22:38;;;;;;;8.43;5.07;;;;;;;20.99;100.00;101213.00;5121215;28;20027;-58
2023/01/04 11:25:16;;;;;;;11.07;5.13;;;;;;;20.84;100.00;101208.22;5115263;28;20032;-59
2023/01/04 11:27:47;;;;;;;11.83;4.80;;;;;;;21.02;100.00;101220.66;5118709;28;20272;-58
2023/01/04 11:30:23;;;;;;;10.13;4.90;;;;;;;19.64;100.00;101202.28;5120932;28;20344;-59
2023/01/04 11:32:55;;;;;;;8.35;4.22;;;;;;;20.49;100.00;101199.38;5120001;28;20260;-57
2023/01/04 11:35:55;;;;;;;5.63;4.13;;;;;;;20.12;100.00;101213.59;5120233;28;20043;-59
2023/01/04 11:38:23;;;;;;;7.77;4.90;;;;;;;21.10;100.00;101208.47;5082662;28;20281;-57
2023/01/04 11:40:58;;;;;;;7.07;4.50;;;;;;;20.89;100.00;101199.28;5112920;28;20269;-56
2023/01/04 11:43:27;;;;;;;7.43;4.63;;;;;;;19.46;100.00;101181.66;5116452;28;20275;-56
2023/01/04 11:45:59;;;;;;;14.77;5.00;;;;;;;18.84;100.00;101210.38;5115358;28;20281;-56
2023/01/04 11:48:42;;;;;;;8.23;4.20;;;;;;;19.20;100.00;101208.34;5106844;28;20280;-58
2023/01/04 11:51:19;;;;;;;6.83;4.20;;;;;;;19.28;100.00;101201.72;5114702;28;20272;-58
2023/01/04 11:53:56;;;;;;;8.75;5.50;;;;;;;18.90;100.00;101209.38;5112516;28;20283;-59
2023/01/04 11:56:23;;;;;;;8.15;4.63;;;;;;;19.42;100.00;101196.78;5112192;28;20046;-58
2023/01/04 11:59:07;;;;;;;9.40;4.87;;;;;;;19.64;100.00;101186.00;5108202;28;20043;-60
2023/01/04 12:01:35;;;;;;;7.13;4.97;;;;;;;19.47;100.00;101192.25;5115618;28;20312;-60
2023/01/04 12:04:01;;;;;;;8.50;5.33;;;;;;;19.37;100.00;101170.41;5111878;28;20271;-56
2023/01/04 12:06:26;;;;;;;8.93;5.53;;;;;;;19.03;100.00;101202.88;5116470;28;20268;-57
2023/01/04 12:08:53;;;;;;;9.93;5.30;;;;;;;19.13;100.00;101180.56;5112490;28;20046;-59
2023/01/04 12:11:27;;;;;;;7.40;5.33;;;;;;;20.23;100.00;101187.41;5113323;28;20069;-55